Time;durP1;ratioP1;P1;durP2;ratioP2;P2;SDS_P1;SDS_P2;PMS_P1;PMS_P2;Temp;Humidity;BMP_temperature;BMP_pressure;BME280_temperature;BME280_humidity;BME280_pressure;Samples;Min_cycle;Max_cycle;Signal;HPM_P1;HPM_P2
2022/04/27 00:01:39;;;;;;;;;8.33;7.67;;;;;14.27;40.29;101877.34;5098509;27;45363;-81
2022/04/27 00:04:04;;;;;;;;;8.67;8.67;;;;;14.03;40.43;101845.25;5098703;27;45418;-81
2022/04/27 00:06:30;;;;;;;;;12.33;9.00;;;;;14.35;40.33;101900.25;5097700;27;45336;-80
2022/04/27 00:08:56;;;;;;;;;11.00;9.00;;;;;14.33;40.34;101904.78;5098104;27;45238;-80
2022/04/27 00:11:21;;;;;;;;;10.33;9.00;;;;;14.23;40.64;101898.03;5079970;27;45687;-80
2022/04/27 00:13:46;;;;;;;;;7.00;7.00;;;;;14.10;40.88;101872.69;5098080;27;45489;-81
2022/04/27 00:16:11;;;;;;;;;8.00;8.00;;;;;14.19;40.55;101895.53;5098233;27;45217;-81
2022/04/27 00:18:37;;;;;;;;;7.00;5.33;;;;;14.28;40.55;101904.13;5098218;27;45451;-81
2022/04/27 00:21:05;;;;;;;;;6.00;5.67;;;;;14.25;40.58;101911.41;5097579;27;45559;-81
2022/04/27 00:23:32;;;;;;;;;9.33;9.33;;;;;14.09;40.67;101877.16;5098601;27;45406;-81
2022/04/27 00:25:58;;;;;;;;;11.33;8.00;;;;;14.22;40.87;101903.47;5097652;27;45453;-81
2022/04/27 00:28:23;;;;;;;;;8.33;7.67;;;;;14.18;41.13;101909.91;5079764;27;45482;-81
2022/04/27 00:30:49;;;;;;;;;10.33;7.67;;;;;13.88;41.10;101859.25;5097614;27;45570;-81
2022/04/27 00:33:15;;;;;;;;;7.67;7.00;;;;;13.89;40.97;101877.94;5098417;27;45474;-81
2022/04/27 00:35:41;;;;;;;;;9.33;9.33;;;;;14.03;41.13;101906.91;5097299;27;46211;-81
2022/04/27 00:38:06;;;;;;;;;4.67;4.67;;;;;13.94;41.13;101888.50;5098032;27;45310;-81
2022/04/27 00:40:32;;;;;;;;;9.67;8.67;;;;;13.98;41.24;101906.22;5079718;27;45460;-81
2022/04/27 00:42:57;;;;;;;;;12.67;9.67;;;;;13.66;41.27;101856.53;5097885;27;45215;-81
2022/04/27 00:45:22;;;;;;;;;10.67;8.67;;;;;13.94;41.50;101907.25;5097907;27;45372;-81
2022/04/27 00:47:48;;;;;;;;;8.33;7.00;;;;;13.79;41.39;101878.34;5097482;27;45442;-81
2022/04/27 00:50:13;;;;;;;;;7.33;6.67;;;;;13.34;41.56;101809.56;5096682;27;45274;-81
2022/04/27 00:52:39;;;;;;;;;11.00;10.67;;;;;13.74;41.87;101889.25;5097886;27;45492;-81
2022/04/27 00:55:05;;;;;;;;;9.33;9.33;;;;;13.80;41.46;101893.53;5097184;27;45443;-81
2022/04/27 00:57:30;;;;;;;;;10.00;8.67;;;;;13.83;41.83;101901.44;5097002;27;45475;-81
2022/04/27 00:59:56;;;;;;;;;12.00;9.00;;;;;13.84;41.69;101903.19;5097392;27;45507;-81
2022/04/27 01:02:22;;;;;;;;;8.67;8.67;;;;;13.64;41.76;101871.81;5097881;27;45516;-81
2022/04/27 01:04:48;;;;;;;;;12.00;9.00;;;;;13.56;41.76;101868.56;5096914;27;45371;-81
2022/04/27 01:07:13;;;;;;;;;10.00;10.00;;;;;13.45;41.95;101850.19;5097672;27;45518;-81
2022/04/27 01:09:40;;;;;;;;;10.00;8.33;;;;;13.76;41.91;101899.94;5097473;27;45542;-81
2022/04/27 01:12:06;;;;;;;;;9.00;8.33;;;;;13.62;42.23;101884.38;5079453;27;45592;-81
2022/04/27 01:14:47;;;;;;;;;11.67;9.00;;;;;13.72;41.76;101892.00;5078908;27;47175;-81
2022/04/27 01:17:13;;;;;;;;;12.00;10.33;;;;;13.73;42.17;101901.78;5097286;27;45478;-81
2022/04/27 01:19:38;;;;;;;;;10.00;10.00;;;;;13.71;42.28;101892.06;5097238;27;45318;-81
2022/04/27 01:22:05;;;;;;;;;10.00;8.67;;;;;13.71;42.25;101895.59;5079133;27;45267;-81
2022/04/27 01:24:30;;;;;;;;;9.33;9.33;;;;;13.62;42.36;101885.25;5097388;27;46645;-80
2022/04/27 01:26:56;;;;;;;;;8.67;8.67;;;;;13.64;42.24;101895.91;5096937;27;45558;-80
2022/04/27 01:29:22;;;;;;;;;10.67;8.67;;;;;13.58;42.40;101888.09;5097338;27;45267;-81
2022/04/27 01:31:49;;;;;;;;;9.67;9.67;;;;;13.47;42.33;101870.63;5097169;27;45498;-81
2022/04/27 01:34:15;;;;;;;;;11.33;10.00;;;;;13.61;42.34;101896.91;5096698;27;45412;-81
2022/04/27 01:36:40;;;;;;;;;12.67;11.67;;;;;13.57;42.46;101894.41;5097201;27;45503;-81
2022/04/27 01:39:07;;;;;;;;;15.33;12.33;;;;;13.55;42.50;101891.75;5096995;27;45564;-81
2022/04/27 01:41:32;;;;;;;;;9.33;8.33;;;;;13.56;42.79;101896.22;5097656;27;45370;-81
2022/04/27 01:43:58;;;;;;;;;11.67;11.33;;;;;13.54;42.74;101895.38;5096600;27;46101;-80
2022/04/27 01:46:24;;;;;;;;;13.00;11.00;;;;;13.25;42.52;101846.44;5096918;27;45463;-81
2022/04/27 01:48:52;;;;;;;;;13.00;13.00;;;;;13.24;42.91;101846.50;5096850;27;45448;-81
2022/04/27 01:51:18;;;;;;;;;12.33;10.00;;;;;13.32;42.95;101855.13;5097273;27;45404;-81
2022/04/27 01:56:28;;;;;;;;;12.67;10.00;;;;;12.99;43.01;101807.22;5096802;27;45435;-80
2022/04/27 01:58:54;;;;;;;;;12.00;9.00;;;;;13.45;43.10;101895.72;5096568;27;45388;-81
2022/04/27 02:01:21;;;;;;;;;8.33;8.00;;;;;13.43;43.14;101892.22;5079505;27;45436;-81
2022/04/27 02:03:47;;;;;;;;;13.67;12.67;;;;;13.42;43.31;101901.22;5099766;27;45720;-81
2022/04/27 02:06:16;;;;;;;;;11.00;11.00;;;;;13.16;43.33;101864.63;5100079;27;45380;-81
2022/04/27 02:08:42;;;;;;;;;13.33;11.00;;;;;13.38;43.43;101905.78;5081982;27;45421;-80
2022/04/27 02:11:07;;;;;;;;;12.33;10.00;;;;;12.95;43.49;101847.56;5082004;27;45752;-81
2022/04/27 02:13:33;;;;;;;;;13.33;13.00;;;;;13.34;43.73;101920.22;5100142;27;46633;-81
2022/04/27 02:16:00;;;;;;;;;11.00;11.00;;;;;13.08;43.70;101873.81;5099675;27;45342;-81
2022/04/27 02:18:26;;;;;;;;;13.33;11.33;;;;;13.27;43.96;101903.53;5100214;27;45389;-81
2022/04/27 02:20:52;;;;;;;;;12.33;12.33;;;;;12.95;43.83;101847.56;5100236;27;45637;-81
2022/04/27 02:23:20;;;;;;;;;14.00;13.00;;;;;13.29;43.75;101908.81;5081738;27;48176;-81
2022/04/27 02:25:45;;;;;;;;;14.00;14.00;;;;;12.97;43.91;101869.78;5099773;27;45374;-81
2022/04/27 02:28:11;;;;;;;;;13.33;12.00;;;;;12.72;44.11;101827.84;5099989;27;46073;-81
2022/04/27 02:30:36;;;;;;;;;12.33;12.33;;;;;12.91;44.61;101859.31;5100009;27;45478;-81
2022/04/27 02:33:02;;;;;;;;;13.33;11.00;;;;;13.18;44.30;101900.25;5099446;27;45332;-81
2022/04/27 02:35:28;;;;;;;;;12.67;12.67;;;;;12.82;44.23;101852.47;5099976;27;45610;-81
2022/04/27 02:37:53;;;;;;;;;12.00;11.00;;;;;13.12;44.49;101895.13;5099741;27;45300;-80
2022/04/27 02:40:18;;;;;;;;;17.67;11.00;;;;;12.91;44.81;101868.19;5100071;27;45373;-81
2022/04/27 02:42:44;;;;;;;;;15.00;13.33;;;;;13.07;44.80;101900.66;5099611;27;45708;-81
2022/04/27 02:45:09;;;;;;;;;12.33;11.33;;;;;12.84;44.99;101870.22;5099333;27;45636;-80
2022/04/27 02:47:34;;;;;;;;;13.00;13.00;;;;;13.04;45.30;101904.31;5099730;27;45632;-81
2022/04/27 02:52:43;;;;;;;;;13.33;12.00;;;;;13.02;45.40;101903.50;5099436;27;45827;-81
2022/04/27 02:55:09;;;;;;;;;13.33;13.33;;;;;12.66;45.08;101833.41;5099296;27;45436;-81
2022/04/27 02:57:34;;;;;;;;;12.33;12.00;;;;;12.93;45.29;101878.84;5099414;27;45391;-81
2022/04/27 03:00:00;;;;;;;;;14.33;12.67;;;;;12.85;45.26;101869.31;5099409;27;45354;-80
2022/04/27 03:02:25;;;;;;;;;14.33;13.00;;;;;12.81;45.56;101859.63;5099409;27;46083;-81
2022/04/27 03:04:50;;;;;;;;;15.67;14.67;;;;;12.61;45.74;101836.22;5099077;27;45467;-81
2022/04/27 03:07:15;;;;;;;;;13.00;12.00;;;;;12.54;45.90;101821.31;5099409;27;45428;-80
2022/04/27 03:09:41;;;;;;;;;12.33;12.33;;;;;12.71;45.52;101854.63;5080968;27;45550;-81
2022/04/27 03:12:07;;;;;;;;;14.00;13.00;;;;;12.81;45.68;101872.13;5098973;27;46077;-80
2022/04/27 03:14:32;;;;;;;;;14.00;14.00;;;;;12.84;45.95;101877.38;5098895;27;45382;-80
2022/04/27 03:16:57;;;;;;;;;15.67;14.00;;;;;12.87;45.96;101887.97;5099113;27;45496;-80
2022/04/27 03:19:24;;;;;;;;;15.00;15.00;;;;;11.90;45.77;101724.66;5099632;27;45359;-81
2022/04/27 03:21:50;;;;;;;;;16.67;16.67;;;;;12.47;46.01;101822.47;5098951;27;46709;-81
2022/04/27 03:24:15;;;;;;;;;17.00;16.00;;;;;12.31;46.04;101797.19;5098814;27;45345;-80
2022/04/27 03:26:40;;;;;;;;;19.00;15.00;;;;;12.78;46.16;101874.91;5099017;27;45315;-81
2022/04/27 03:29:06;;;;;;;;;14.00;14.00;;;;;12.67;46.57;101867.25;5098996;27;45339;-81
2022/04/27 03:31:32;;;;;;;;;15.67;15.33;;;;;12.64;46.18;101864.66;5098795;27;45867;-81
2022/04/27 03:33:58;;;;;;;;;16.00;14.33;;;;;12.67;46.36;101875.28;5080289;27;45456;-81
2022/04/27 03:36:23;;;;;;;;;17.67;16.00;;;;;12.52;46.51;101835.69;5098746;27;45384;-81
2022/04/27 03:38:49;;;;;;;;;15.00;15.00;;;;;12.48;46.75;101836.72;5099431;27;45404;-81
2022/04/27 03:41:20;;;;;;;;;22.00;15.67;;;;;12.76;46.73;101885.69;5098812;27;45381;-81
2022/04/27 03:43:49;;;;;;;;;19.00;16.00;;;;;12.54;46.38;101847.19;5098211;27;45425;-81
2022/04/27 03:46:15;;;;;;;;;17.33;15.00;;;;;12.73;46.73;101880.41;5098788;27;45432;-81
2022/04/27 03:48:40;;;;;;;;;20.33;16.67;;;;;12.53;47.16;101845.47;5098924;27;45338;-81
2022/04/27 03:51:06;;;;;;;;;21.00;17.67;;;;;12.47;46.99;101841.19;5098563;27;45929;-81
2022/04/27 03:53:31;;;;;;;;;16.67;14.33;;;;;12.71;47.07;101876.03;5098246;27;45435;-81
2022/04/27 03:55:57;;;;;;;;;19.33;17.00;;;;;12.70;46.75;101880.53;5098544;27;45340;-81
2022/04/27 03:58:22;;;;;;;;;16.00;14.33;;;;;12.47;46.98;101841.19;5098540;27;45433;-81
2022/04/27 04:00:48;;;;;;;;;19.00;17.33;;;;;12.18;46.86;101794.06;5098111;27;45379;-81
2022/04/27 04:03:13;;;;;;;;;19.00;16.33;;;;;12.57;46.95;101865.81;5098487;27;45436;-81
2022/04/27 04:05:39;;;;;;;;;20.67;17.67;;;;;12.24;46.66;101813.44;5098361;27;45879;-81
2022/04/27 04:08:05;;;;;;;;;19.00;15.00;;;;;12.40;47.60;101845.84;5080427;27;45480;-81
2022/04/27 04:10:30;;;;;;;;;22.00;19.00;;;;;12.50;47.43;101872.28;5098029;27;46447;-81
2022/04/27 04:12:56;;;;;;;;;16.00;16.00;;;;;12.48;47.69;101877.72;5097664;27;45733;-81
2022/04/27 04:15:21;;;;;;;;;18.67;17.67;;;;;12.30;47.81;101852.44;5098303;27;45384;-81
2022/04/27 04:17:47;;;;;;;;;18.33;15.67;;;;;12.57;47.81;101895.22;5098316;27;45364;-81
2022/04/27 04:20:14;;;;;;;;;14.00;12.00;;;;;12.35;47.71;101871.00;5098215;27;45274;-81
2022/04/27 04:22:40;;;;;;;;;26.00;19.33;;;;;12.53;47.65;101890.94;5097882;27;45367;-81
2022/04/27 04:30:34;;;;;;;;;20.00;18.67;;;;;12.45;47.75;101896.50;5097738;27;45527;-81
2022/04/27 04:32:59;;;;;;;;;28.00;20.00;;;;;12.02;48.08;101839.13;5097856;27;45493;-81
2022/04/27 04:35:25;;;;;;;;;20.67;18.67;;;;;12.47;47.87;101905.38;5097891;27;46726;-81
2022/04/27 04:37:50;;;;;;;;;18.33;18.00;;;;;12.45;48.21;101905.44;5098201;27;45440;-81
2022/04/27 04:40:15;;;;;;;;;19.00;17.33;;;;;12.44;48.10;101905.47;5097666;27;46112;-81
2022/04/27 04:42:41;;;;;;;;;25.33;16.00;;;;;12.00;48.48;101836.47;5097061;27;45345;-81
2022/04/27 04:45:07;;;;;;;;;20.33;19.33;;;;;12.25;48.37;101883.81;5097957;27;45419;-81
2022/04/27 04:47:32;;;;;;;;;24.67;20.00;;;;;12.16;48.37;101870.75;5098062;27;45429;-81
2022/04/27 04:49:57;;;;;;;;;23.33;22.33;;;;;12.19;48.60;101874.19;5097289;27;52912;-81
2022/04/27 04:52:22;;;;;;;;;18.33;18.33;;;;;12.11;48.55;101876.25;5097452;27;45333;-81
2022/04/27 04:54:48;;;;;;;;;22.33;20.00;;;;;12.37;48.85;101918.16;5097507;27;45306;-81
2022/04/27 04:57:13;;;;;;;;;20.67;16.67;;;;;12.16;48.53;101892.13;5097343;27;45553;-81
2022/04/27 04:59:39;;;;;;;;;20.33;17.67;;;;;12.24;48.79;101904.31;5097187;27;46453;-81
2022/04/27 05:02:04;;;;;;;;;20.33;19.00;;;;;12.30;49.16;101915.75;5097675;27;45376;-81
2022/04/27 05:04:30;;;;;;;;;26.67;21.67;;;;;12.00;49.25;101863.19;5079092;27;45430;-81
2022/04/27 05:06:56;;;;;;;;;21.00;21.00;;;;;12.38;48.97;101925.25;5097683;27;45376;-81
2022/04/27 05:09:21;;;;;;;;;28.33;24.00;;;;;12.23;49.21;101912.38;5097492;27;45491;-81
2022/04/27 05:11:47;;;;;;;;;22.67;21.33;;;;;12.23;48.95;101910.59;5096527;27;45457;-81
2022/04/27 05:14:13;;;;;;;;;19.33;18.00;;;;;12.37;49.06;101931.53;5097681;27;45372;-81
2022/04/27 05:16:38;;;;;;;;;25.33;20.33;;;;;12.37;49.26;101931.53;5097453;27;45455;-81
2022/04/27 05:19:03;;;;;;;;;25.33;21.33;;;;;12.32;49.17;101927.28;5097338;27;46069;-81
2022/04/27 05:21:29;;;;;;;;;20.00;20.00;;;;;12.17;49.39;101901.88;5097326;27;45299;-81
2022/04/27 05:23:55;;;;;;;;;23.33;22.00;;;;;12.40;49.19;101941.25;5097133;27;45470;-81
2022/04/27 05:26:20;;;;;;;;;21.00;20.00;;;;;12.17;49.16;101904.56;5078979;27;45458;-81
2022/04/27 05:34:13;;;;;;;;;24.67;21.33;;;;;12.03;49.75;101880.94;5097420;27;45440;-81
2022/04/27 05:36:38;;;;;;;;;26.33;25.00;;;;;12.36;49.57;101931.56;5099779;27;45625;-81
2022/04/27 05:39:03;;;;;;;;;22.33;19.67;;;;;12.04;49.40;101877.34;5100423;27;46273;-81
2022/04/27 05:41:29;;;;;;;;;22.67;21.67;;;;;12.53;49.96;101949.78;5100189;27;62752;-81
2022/04/27 05:43:54;;;;;;;;;24.67;22.00;;;;;12.44;49.47;101934.88;5082133;27;45252;-81
2022/04/27 05:46:19;;;;;;;;;26.00;25.00;;;;;12.45;49.37;101945.53;5082654;27;45665;-81
2022/04/27 05:48:45;;;;;;;;;23.67;21.67;;;;;12.30;49.46;101908.59;5100431;27;45487;-81
2022/04/27 05:51:11;;;;;;;;;27.67;25.67;;;;;12.60;49.31;101965.56;5100521;27;45320;-81
2022/04/27 05:53:36;;;;;;;;;23.00;23.00;;;;;12.48;49.52;101939.22;5081807;27;45419;-81
2022/04/27 05:56:02;;;;;;;;;23.67;22.00;;;;;12.46;49.42;101935.72;5100556;27;45737;-81
2022/04/27 05:58:27;;;;;;;;;27.33;23.67;;;;;12.63;49.24;101973.47;5100530;27;45316;-81
2022/04/27 06:00:52;;;;;;;;;23.00;22.00;;;;;12.65;49.50;101978.78;5100197;27;45514;-81
2022/04/27 06:03:18;;;;;;;;;25.00;22.33;;;;;12.51;49.10;101946.25;5100324;27;45564;-81
2022/04/27 06:05:43;;;;;;;;;31.00;21.33;;;;;12.71;49.53;101983.91;5100442;27;45401;-80
2022/04/27 06:08:09;;;;;;;;;26.67;23.33;;;;;12.55;49.08;101956.81;5099827;27;46255;-81
2022/04/27 06:10:35;;;;;;;;;20.33;18.33;;;;;12.62;49.04;101966.38;5100247;27;45639;-81
2022/04/27 06:13:00;;;;;;;;;26.00;20.33;;;;;12.59;49.11;101962.91;5099789;27;45566;-80
2022/04/27 06:15:26;;;;;;;;;24.00;20.33;;;;;12.64;48.85;101963.63;5100764;27;45511;-80
2022/04/27 06:17:51;;;;;;;;;24.00;21.00;;;;;12.67;49.15;101980.47;5099675;27;46219;-81
2022/04/27 06:20:16;;;;;;;;;24.00;23.00;;;;;12.36;49.00;101923.53;5081697;27;45749;-81
2022/04/27 06:22:42;;;;;;;;;30.67;24.67;;;;;12.58;49.06;101959.38;5099874;27;45466;-81
2022/04/27 06:25:07;;;;;;;;;26.00;22.00;;;;;12.44;48.91;101938.44;5100448;27;45506;-80
2022/04/27 06:27:33;;;;;;;;;24.67;21.67;;;;;12.59;48.56;101960.25;5099862;27;46350;-81
2022/04/27 06:29:58;;;;;;;;;26.00;25.33;;;;;12.73;49.05;101979.38;5099372;27;45367;-81
2022/04/27 06:32:24;;;;;;;;;25.67;19.33;;;;;12.87;48.58;102003.88;5100019;27;45353;-81
2022/04/27 06:34:49;;;;;;;;;23.67;20.67;;;;;12.92;48.90;102001.06;5099989;27;45419;-81
2022/04/27 06:37:15;;;;;;;;;26.00;21.33;;;;;12.65;48.78;101960.06;5099370;27;45372;-81
2022/04/27 06:39:40;;;;;;;;;23.00;21.00;;;;;13.01;48.82;102011.44;5099491;27;45394;-80
2022/04/27 06:42:06;;;;;;;;;27.33;24.00;;;;;12.79;48.50;101970.31;5099817;27;45506;-81
2022/04/27 06:44:33;;;;;;;;;27.67;25.33;;;;;13.13;48.48;102009.28;5100076;27;45444;-81
2022/04/27 06:46:59;;;;;;;;;26.00;22.33;;;;;13.17;48.95;102014.50;5098493;27;46178;-80
2022/04/27 06:49:24;;;;;;;;;25.67;23.00;;;;;13.16;48.59;102007.41;5099604;27;45538;-81
2022/04/27 06:51:49;;;;;;;;;22.33;21.00;;;;;13.16;48.09;101993.13;5098847;27;45350;-81
2022/04/27 06:54:14;;;;;;;;;21.00;20.67;;;;;13.22;48.10;101983.06;5099772;27;45421;-81
2022/04/27 06:56:40;;;;;;;;;29.33;24.00;;;;;13.08;48.27;101953.25;5099071;27;45362;-81
2022/04/27 06:59:05;;;;;;;;;25.00;22.33;;;;;13.56;47.88;102022.09;5080833;27;45932;-81
2022/04/27 07:01:31;;;;;;;;;23.00;20.33;;;;;13.30;47.90;101975.69;5099644;27;45333;-80
2022/04/27 07:04:01;;;;;;;;;27.00;22.67;;;;;13.66;48.15;102025.31;5099580;27;45551;-81
2022/04/27 07:06:26;;;;;;;;;23.00;22.33;;;;;13.67;47.59;102019.94;5098958;27;45398;-81
2022/04/27 07:08:52;;;;;;;;;41.50;32.00;;;;;13.80;47.64;102032.88;5098916;27;45919;-80
2022/04/27 07:11:18;;;;;;;;;71.75;54.75;;;;;13.76;47.47;102018.69;5080729;27;45313;-81
2022/04/27 07:13:43;;;;;;;;;48.00;36.75;;;;;13.95;47.36;102040.31;5099463;27;45384;-81
2022/04/27 07:16:08;;;;;;;;;90.00;79.50;;;;;13.81;47.00;102013.16;5080583;27;46946;-81
2022/04/27 07:18:34;;;;;;;;;71.75;61.50;;;;;13.88;46.73;101999.50;5080479;27;46971;-81
2022/04/27 07:21:00;;;;;;;;;62.50;49.75;;;;;14.06;46.83;102005.97;5080052;27;45258;-81
2022/04/27 07:23:26;;;;;;;;;45.25;35.50;;;;;14.21;46.46;102025.97;5099637;27;45422;-81
2022/04/27 07:25:52;;;;;;;;;115.00;104.33;;;;;14.33;46.46;102036.22;5098500;27;45802;-81
2022/04/27 07:28:17;;;;;;;;;85.50;72.00;;;;;14.21;46.37;102007.19;5098887;27;45320;-80
2022/04/27 07:30:43;;;;;;;;;49.75;40.50;;;;;14.43;46.26;102036.72;5098802;27;45377;-81
2022/04/27 07:33:08;;;;;;;;;28.33;26.00;;;;;14.31;46.14;102010.38;5080981;27;45535;-80
2022/04/27 07:35:33;;;;;;;;;38.75;33.50;;;;;14.43;46.29;102019.75;5098553;27;45936;-81
2022/04/27 07:37:59;;;;;;;;;28.25;24.00;;;;;14.64;46.06;102045.78;5098654;27;45475;-81
2022/04/27 07:40:25;;;;;;;;;29.33;25.67;;;;;14.57;45.91;102017.44;5098825;27;45417;-81
2022/04/27 07:42:50;;;;;;;;;29.00;23.67;;;;;14.66;45.81;102030.50;5099007;27;45385;-80
2022/04/27 07:45:15;;;;;;;;;39.75;37.25;;;;;14.73;46.02;102031.97;5098402;27;49461;-81
2022/04/27 07:47:45;;;;;;;;;88.25;78.75;;;;;14.82;45.51;102017.31;5098246;27;45350;-81
2022/04/27 07:50:14;;;;;;;;;60.00;49.25;;;;;14.72;45.40;101983.72;5079904;27;45394;-81
2022/04/27 07:52:39;;;;;;;;;84.00;67.75;;;;;15.09;45.48;102046.63;5098577;27;45410;-81
2022/04/27 07:55:06;;;;;;;;;30.67;29.33;;;;;14.99;45.07;102019.31;5098144;27;46501;-81
2022/04/27 07:57:32;;;;;;;;;31.67;31.00;;;;;15.26;45.33;102049.47;5079952;27;45344;-81
2022/04/27 07:59:59;;;;;;;;;32.33;27.33;;;;;15.10;44.99;102016.16;5098457;27;45630;-81
2022/04/27 08:02:24;;;;;;;;;30.00;27.00;;;;;15.26;45.19;102030.66;5098419;27;45418;-81
2022/04/27 08:04:49;;;;;;;;;30.00;26.33;;;;;15.45;44.99;102051.38;5079277;27;46898;-81
2022/04/27 08:07:15;;;;;;;;;30.00;23.33;;;;;15.33;44.67;102024.09;5098267;27;45434;-81
2022/04/27 08:09:40;;;;;;;;;33.00;29.67;;;;;15.51;44.49;102035.88;5079848;27;45608;-81
2022/04/27 08:12:06;;;;;;;;;27.00;25.33;;;;;15.52;44.44;102013.44;5080185;27;45581;-81
2022/04/27 08:14:35;;;;;;;;;28.33;25.33;;;;;15.83;44.22;102047.91;5079696;27;48303;-81
2022/04/27 08:17:01;;;;;;;;;36.67;30.33;;;;;15.99;44.00;102052.59;5079760;27;45436;-81
2022/04/27 08:19:27;;;;;;;;;31.33;27.67;;;;;16.16;44.07;102046.47;5097900;27;45443;-81
2022/04/27 08:21:54;;;;;;;;;62.75;49.00;;;;;16.27;43.30;102048.63;5098285;27;45449;-81
2022/04/27 08:24:21;;;;;;;;;30.33;28.33;;;;;16.46;43.00;102054.91;5097668;27;45662;-81
2022/04/27 08:26:46;;;;;;;;;75.50;61.50;;;;;16.45;43.05;101999.31;5097811;27;45412;-81
2022/04/27 08:29:12;;;;;;;;;70.75;54.50;;;;;16.97;42.66;102021.00;5079597;27;45259;-81
2022/04/27 08:31:37;;;;;;;;;45.00;35.00;;;;;17.43;42.12;102007.03;5079649;27;45462;-81
2022/04/27 08:34:02;;;;;;;;;39.00;34.00;;;;;18.33;40.65;102052.53;5097841;27;50932;-81
2022/04/27 08:36:28;;;;;;;;;66.25;52.75;;;;;19.08;40.01;102051.03;5097587;27;45341;-81
2022/04/27 08:38:53;;;;;;;;;45.00;37.67;;;;;19.92;38.53;102041.47;5098022;27;45899;-81
2022/04/27 08:41:19;;;;;;;;;33.00;28.67;;;;;20.84;36.91;102036.47;5098179;27;45404;-81
2022/04/27 08:43:45;;;;;;;;;54.75;45.00;;;;;21.59;36.05;101991.66;5097408;27;45984;-82
2022/04/27 08:46:13;;;;;;;;;31.33;28.33;;;;;22.80;33.76;102028.16;5098057;27;45334;-80
2022/04/27 08:48:38;;;;;;;;;26.00;25.33;;;;;23.76;33.40;102017.16;5097370;27;45426;-80
2022/04/27 08:51:05;;;;;;;;;25.33;22.33;;;;;24.53;31.29;101976.41;5097893;27;45415;-80
2022/04/27 08:53:31;;;;;;;;;18.67;18.67;;;;;25.78;30.69;102031.28;5097364;27;45471;-82
2022/04/27 08:55:57;;;;;;;;;21.67;20.00;;;;;26.60;29.24;102022.16;5097284;27;45368;-82
2022/04/27 08:58:24;;;;;;;;;25.67;19.33;;;;;27.36;28.19;102017.75;5097650;27;45551;-82
2022/04/27 09:00:50;;;;;;;;;23.67;21.67;;;;;28.14;27.19;102016.72;5097880;27;45385;-82
2022/04/27 09:03:23;;;;;;;;;25.33;20.00;;;;;28.82;26.94;102019.97;5097151;27;45554;-89
2022/04/27 09:05:50;;;;;;;;;23.00;21.67;;;;;29.30;26.03;102017.84;5097451;27;45393;-89
2022/04/27 09:08:16;;;;;;;;;21.00;19.33;;;;;29.81;25.27;102015.31;5079302;27;45486;-89
2022/04/27 09:10:41;;;;;;;;;20.33;20.33;;;;;29.93;25.29;101949.94;5097014;27;45605;-89
2022/04/27 09:13:07;;;;;;;;;31.00;26.67;;;;;30.56;24.17;102000.91;5079135;27;47278;-89
2022/04/27 09:15:32;;;;;;;;;26.00;24.67;;;;;30.85;23.59;101987.53;5097268;27;45483;-89
2022/04/27 09:20:52;;;;;;;;;56.75;45.75;;;;;31.91;22.92;102013.31;5097521;27;45436;-87
2022/04/27 09:23:21;;;;;;;;;18.33;15.00;;;;;32.31;22.49;102019.72;5097411;27;46248;-87
2022/04/27 09:25:47;;;;;;;;;26.00;26.00;;;;;32.61;22.27;102011.69;5078866;27;45385;-87
2022/04/27 09:28:12;;;;;;;;;20.00;20.00;;;;;32.86;22.11;102010.47;5078934;27;45401;-87
2022/04/27 09:30:38;;;;;;;;;59.50;47.25;;;;;32.64;21.50;101912.81;5097217;27;45403;-88
2022/04/27 09:33:03;;;;;;;;;53.00;45.25;;;;;33.45;21.51;101984.97;5078384;27;46026;-87
2022/04/27 09:35:32;;;;;;;;;62.25;50.25;;;;;34.11;20.95;102023.88;5097161;27;45453;-88
2022/04/27 09:38:11;;;;;;;;;22.00;21.67;;;;;34.15;20.44;101958.78;5097307;27;45353;-87
2022/04/27 09:40:52;;;;;;;;;19.33;19.00;;;;;34.78;20.06;102019.19;5097121;27;45454;-81
2022/04/27 09:43:47;;;;;;;;;25.67;24.33;;;;;35.21;20.25;102005.34;5096992;27;45704;-81
2022/04/27 09:46:22;;;;;;;;;19.33;18.67;;;;;35.75;19.18;102014.97;5078294;27;45421;-81
2022/04/27 09:49:09;;;;;;;;;21.00;18.67;;;;;36.31;18.55;102014.88;5096751;27;45481;-81
2022/04/27 09:51:47;;;;;;;;;19.00;18.67;;;;;36.96;18.11;101993.06;5078854;27;45483;-81
2022/04/27 09:54:21;;;;;;;;;22.67;17.67;;;;;37.54;17.60;101989.69;5078247;27;47390;-81
2022/04/27 09:57:08;;;;;;;;;20.00;20.00;;;;;38.31;17.63;101998.28;5096375;27;45405;-81
2022/04/27 09:59:35;;;;;;;;;19.67;19.67;;;;;38.73;16.00;101952.16;5096726;27;45268;-82
2022/04/27 10:02:08;;;;;;;;;21.33;20.67;;;;;39.43;15.88;101935.31;5096925;27;45366;-81
2022/04/27 10:04:36;;;;;;;;;21.00;18.33;;;;;40.63;14.61;101986.06;5096418;27;46020;-81
2022/04/27 10:07:03;;;;;;;;;21.67;20.33;;;;;40.78;14.22;101935.28;5096694;27;45486;-81
2022/04/27 10:09:29;;;;;;;;;21.67;21.33;;;;;41.57;14.10;101975.06;5096909;27;45401;-82
2022/04/27 10:11:57;;;;;;;;;18.67;18.67;;;;;42.19;13.46;101988.44;5096886;27;45530;-82
2022/04/27 10:14:22;;;;;;;;;23.00;18.67;;;;;41.91;13.87;101958.41;5096549;27;45397;-82
2022/04/27 10:16:49;;;;;;;;;19.00;17.00;;;;;42.83;13.04;101973.44;5095959;27;45380;-82
2022/04/27 10:19:16;;;;;;;;;20.33;20.33;;;;;43.15;13.17;101973.72;5096961;27;45396;-82
2022/04/27 10:21:56;;;;;;;;;19.33;17.00;;;;;43.27;12.90;101942.75;5096532;27;45563;-82
2022/04/27 10:24:49;;;;;;;;;16.33;15.33;;;;;43.65;12.96;101967.22;5099908;27;45498;-82
2022/04/27 10:27:22;;;;;;;;;19.00;18.33;;;;;43.51;12.31;101954.66;5078563;27;45763;-82
2022/04/27 10:30:13;;;;;;;;;16.33;16.33;;;;;43.13;12.61;101973.97;5081133;27;45733;-82
2022/04/27 10:32:51;;;;;;;;;19.33;18.33;;;;;42.76;12.31;101963.22;5081803;27;45388;-82
2022/04/27 10:35:19;;;;;;;;;25.00;17.67;;;;;41.93;13.06;101957.06;5081416;27;48635;-82
2022/04/27 10:37:45;;;;;;;;;21.33;19.00;;;;;40.46;13.85;101955.97;5080978;27;45476;-82
2022/04/27 10:40:35;;;;;;;;;19.33;17.33;;;;;39.00;15.07;101952.81;5081411;27;45408;-82
2022/04/27 10:43:21;;;;;;;;;18.33;18.00;;;;;38.43;15.37;101957.47;5100277;27;45325;-82
2022/04/27 10:45:49;;;;;;;;;18.00;18.00;;;;;37.31;15.59;101899.19;5084286;27;46287;-82
2022/04/27 10:48:22;;;;;;;;;23.67;23.00;;;;;37.50;15.85;101924.38;5099599;27;45381;-82
2022/04/27 10:51:03;;;;;;;;;38.67;33.00;;;;;37.88;16.30;101935.63;5099493;27;45453;-82
2022/04/27 10:53:39;;;;;;;;;41.00;34.33;;;;;38.10;16.14;101927.03;5081437;27;45426;-82
2022/04/27 10:56:22;;;;;;;;;35.33;31.67;;;;;37.91;15.71;101873.97;5099398;27;46575;-82
2022/04/27 10:58:47;;;;;;;;;39.50;32.25;;;;;38.29;15.10;101895.41;5099116;27;45318;-82
2022/04/27 11:01:15;;;;;;;;;29.00;28.33;;;;;38.87;15.37;101947.34;5099626;27;45635;-82
2022/04/27 11:03:41;;;;;;;;;20.33;17.67;;;;;38.64;14.85;101925.66;5099615;27;45434;-82
2022/04/27 11:06:13;;;;;;;;;19.00;18.33;;;;;38.25;15.24;101919.22;5099381;27;46255;-82
2022/04/27 11:09:16;;;;;;;;;18.33;17.00;;;;;38.43;15.37;101938.81;5099446;27;45380;-82
2022/04/27 11:11:51;;;;;;;;;19.33;18.67;;;;;37.95;14.95;101941.19;5099107;27;45323;-81
2022/04/27 11:14:19;;;;;;;;;16.00;16.00;;;;;36.76;15.54;101915.22;5099268;27;45594;-81
2022/04/27 11:16:47;;;;;;;;;16.67;16.67;;;;;36.14;15.85;101933.88;5099014;27;46016;-82
2022/04/27 11:19:13;;;;;;;;;30.67;28.67;;;;;35.26;16.54;101914.13;5099168;27;45512;-81
2022/04/27 11:21:40;;;;;;;;;26.67;23.67;;;;;34.81;16.72;101888.59;5099178;27;45614;-81
2022/04/27 11:24:07;;;;;;;;;34.67;30.33;;;;;34.56;17.63;101941.59;5099662;27;45535;-81
2022/04/27 11:26:46;;;;;;;;;41.75;35.50;;;;;33.51;18.38;101909.56;5098870;27;45646;-81
2022/04/27 11:29:13;;;;;;;;;23.00;21.00;;;;;32.92;18.14;101926.91;5098660;27;45363;-81
2022/04/27 11:31:43;;;;;;;;;28.00;26.00;;;;;32.43;19.33;101920.84;5098803;27;45363;-81